sensor_id;sensor_type;location;lat;lon;timestamp;P1;durP1;ratioP1;P2;durP2;ratioP2
8349;SDS011;60699;48.946;8.412;2022-10-16T00:02:16;1.63;;;1.53;;
8349;SDS011;60699;48.946;8.412;2022-10-16T00:04:43;2.43;;;1.53;;
8349;SDS011;60699;48.946;8.412;2022-10-16T00:07:10;1.40;;;1.30;;
8349;SDS011;60699;48.946;8.412;2022-10-16T00:09:37;1.40;;;1.33;;
8349;SDS011;60699;48.946;8.412;2022-10-16T00:12:04;3.37;;;1.70;;
8349;SDS011;60699;48.946;8.412;2022-10-16T00:14:33;1.77;;;1.67;;
8349;SDS011;60699;48.946;8.412;2022-10-16T00:17:00;1.60;;;1.50;;
8349;SDS011;60699;48.946;8.412;2022-10-16T00:19:27;16.83;;;1.97;;
8349;SDS011;60699;48.946;8.412;2022-10-16T00:21:54;2.43;;;1.43;;
8349;SDS011;60699;48.946;8.412;2022-10-16T00:24:21;5.60;;;1.60;;
8349;SDS011;60699;48.946;8.412;2022-10-16T00:26:48;1.77;;;1.50;;
8349;SDS011;60699;48.946;8.412;2022-10-16T00:29:16;1.53;;;1.43;;
8349;SDS011;60699;48.946;8.412;2022-10-16T00:31:44;1.50;;;1.40;;
8349;SDS011;60699;48.946;8.412;2022-10-16T00:34:11;1.87;;;1.60;;
8349;SDS011;60699;48.946;8.412;2022-10-16T00:36:39;1.97;;;1.73;;
8349;SDS011;60699;48.946;8.412;2022-10-16T00:39:06;1.63;;;1.53;;
8349;SDS011;60699;48.946;8.412;2022-10-16T00:41:33;1.73;;;1.63;;
8349;SDS011;60699;48.946;8.412;2022-10-16T00:44:01;2.87;;;1.33;;
8349;SDS011;60699;48.946;8.412;2022-10-16T00:46:29;3.07;;;1.73;;
8349;SDS011;60699;48.946;8.412;2022-10-16T00:48:59;1.97;;;1.87;;
8349;SDS011;60699;48.946;8.412;2022-10-16T00:51:28;1.40;;;1.30;;
8349;SDS011;60699;48.946;8.412;2022-10-16T00:53:56;2.33;;;1.40;;
8349;SDS011;60699;48.946;8.412;2022-10-16T00:56:24;1.83;;;1.70;;
8349;SDS011;60699;48.946;8.412;2022-10-16T00:58:51;1.47;;;1.37;;
8349;SDS011;60699;48.946;8.412;2022-10-16T01:01:18;1.40;;;1.30;;
8349;SDS011;60699;48.946;8.412;2022-10-16T01:03:45;1.50;;;1.40;;
8349;SDS011;60699;48.946;8.412;2022-10-16T01:06:21;1.40;;;1.30;;
8349;SDS011;60699;48.946;8.412;2022-10-16T01:08:54;1.50;;;1.40;;
8349;SDS011;60699;48.946;8.412;2022-10-16T01:11:25;1.60;;;1.50;;
8349;SDS011;60699;48.946;8.412;2022-10-16T01:13:54;1.30;;;1.30;;
8349;SDS011;60699;48.946;8.412;2022-10-16T01:16:24;1.57;;;1.47;;
8349;SDS011;60699;48.946;8.412;2022-10-16T01:18:55;1.83;;;1.33;;
8349;SDS011;60699;48.946;8.412;2022-10-16T01:21:26;2.67;;;1.33;;
8349;SDS011;60699;48.946;8.412;2022-10-16T01:23:57;1.50;;;1.40;;
8349;SDS011;60699;48.946;8.412;2022-10-16T01:26:31;2.43;;;1.60;;
8349;SDS011;60699;48.946;8.412;2022-10-16T01:29:03;6.10;;;1.70;;
8349;SDS011;60699;48.946;8.412;2022-10-16T01:31:33;6.97;;;1.80;;
8349;SDS011;60699;48.946;8.412;2022-10-16T01:34:03;3.23;;;1.90;;
8349;SDS011;60699;48.946;8.412;2022-10-16T01:36:34;2.13;;;1.80;;
8349;SDS011;60699;48.946;8.412;2022-10-16T01:39:02;3.57;;;1.60;;
8349;SDS011;60699;48.946;8.412;2022-10-16T01:41:30;1.50;;;1.40;;
8349;SDS011;60699;48.946;8.412;2022-10-16T01:43:59;9.63;;;1.63;;
8349;SDS011;60699;48.946;8.412;2022-10-16T01:46:30;2.47;;;1.50;;
8349;SDS011;60699;48.946;8.412;2022-10-16T01:48:57;1.73;;;1.63;;
8349;SDS011;60699;48.946;8.412;2022-10-16T01:51:26;1.77;;;1.67;;
8349;SDS011;60699;48.946;8.412;2022-10-16T01:53:55;3.40;;;1.50;;
8349;SDS011;60699;48.946;8.412;2022-10-16T01:56:23;1.57;;;1.20;;
8349;SDS011;60699;48.946;8.412;2022-10-16T01:58:52;5.77;;;1.60;;
8349;SDS011;60699;48.946;8.412;2022-10-16T02:01:21;1.50;;;1.40;;
8349;SDS011;60699;48.946;8.412;2022-10-16T02:03:50;2.10;;;1.60;;
8349;SDS011;60699;48.946;8.412;2022-10-16T02:06:18;1.47;;;1.37;;
8349;SDS011;60699;48.946;8.412;2022-10-16T02:08:45;2.67;;;1.80;;
8349;SDS011;60699;48.946;8.412;2022-10-16T02:11:12;5.50;;;1.73;;
8349;SDS011;60699;48.946;8.412;2022-10-16T02:13:41;1.77;;;1.67;;
8349;SDS011;60699;48.946;8.412;2022-10-16T02:16:10;1.40;;;1.30;;
8349;SDS011;60699;48.946;8.412;2022-10-16T02:18:37;1.53;;;1.43;;
8349;SDS011;60699;48.946;8.412;2022-10-16T02:21:07;3.37;;;1.53;;
8349;SDS011;60699;48.946;8.412;2022-10-16T02:23:37;1.80;;;1.70;;
8349;SDS011;60699;48.946;8.412;2022-10-16T02:26:07;2.67;;;1.63;;
8349;SDS011;60699;48.946;8.412;2022-10-16T02:28:37;2.73;;;1.43;;
8349;SDS011;60699;48.946;8.412;2022-10-16T02:31:06;2.00;;;1.40;;
8349;SDS011;60699;48.946;8.412;2022-10-16T02:33:35;1.67;;;1.57;;
8349;SDS011;60699;48.946;8.412;2022-10-16T02:36:05;1.60;;;1.50;;
8349;SDS011;60699;48.946;8.412;2022-10-16T02:38:33;1.30;;;1.30;;
8349;SDS011;60699;48.946;8.412;2022-10-16T02:41:01;6.50;;;1.77;;
8349;SDS011;60699;48.946;8.412;2022-10-16T02:43:28;3.63;;;1.60;;
8349;SDS011;60699;48.946;8.412;2022-10-16T02:45:55;1.77;;;1.67;;
8349;SDS011;60699;48.946;8.412;2022-10-16T02:48:22;4.00;;;1.97;;
8349;SDS011;60699;48.946;8.412;2022-10-16T02:50:49;5.33;;;1.50;;
8349;SDS011;60699;48.946;8.412;2022-10-16T02:53:18;2.30;;;1.30;;
8349;SDS011;60699;48.946;8.412;2022-10-16T02:55:45;1.70;;;1.60;;
8349;SDS011;60699;48.946;8.412;2022-10-16T02:58:12;1.40;;;1.30;;
8349;SDS011;60699;48.946;8.412;2022-10-16T03:00:39;2.20;;;1.30;;
8349;SDS011;60699;48.946;8.412;2022-10-16T03:03:06;1.70;;;1.60;;
8349;SDS011;60699;48.946;8.412;2022-10-16T03:05:34;2.63;;;1.47;;
8349;SDS011;60699;48.946;8.412;2022-10-16T03:08:01;9.57;;;1.60;;
8349;SDS011;60699;48.946;8.412;2022-10-16T03:10:29;1.20;;;1.20;;
8349;SDS011;60699;48.946;8.412;2022-10-16T03:12:56;1.50;;;1.40;;
8349;SDS011;60699;48.946;8.412;2022-10-16T03:15:23;2.67;;;1.70;;
8349;SDS011;60699;48.946;8.412;2022-10-16T03:17:50;1.43;;;1.33;;
8349;SDS011;60699;48.946;8.412;2022-10-16T03:20:17;1.93;;;1.60;;
8349;SDS011;60699;48.946;8.412;2022-10-16T03:22:44;1.80;;;1.70;;
8349;SDS011;60699;48.946;8.412;2022-10-16T03:25:12;1.57;;;1.47;;
8349;SDS011;60699;48.946;8.412;2022-10-16T03:27:40;6.70;;;1.50;;
8349;SDS011;60699;48.946;8.412;2022-10-16T03:30:08;1.50;;;1.40;;
8349;SDS011;60699;48.946;8.412;2022-10-16T03:32:35;1.73;;;1.63;;
8349;SDS011;60699;48.946;8.412;2022-10-16T03:35:02;1.63;;;1.53;;
8349;SDS011;60699;48.946;8.412;2022-10-16T03:37:29;5.13;;;1.43;;
8349;SDS011;60699;48.946;8.412;2022-10-16T03:39:56;1.90;;;1.43;;
8349;SDS011;60699;48.946;8.412;2022-10-16T03:42:24;6.67;;;1.70;;
8349;SDS011;60699;48.946;8.412;2022-10-16T03:44:52;3.03;;;1.90;;
8349;SDS011;60699;48.946;8.412;2022-10-16T03:47:19;1.63;;;1.53;;
8349;SDS011;60699;48.946;8.412;2022-10-16T03:49:48;2.10;;;1.30;;
8349;SDS011;60699;48.946;8.412;2022-10-16T03:52:15;1.70;;;1.60;;
8349;SDS011;60699;48.946;8.412;2022-10-16T03:54:42;1.70;;;1.60;;
8349;SDS011;60699;48.946;8.412;2022-10-16T03:57:09;2.40;;;1.50;;
8349;SDS011;60699;48.946;8.412;2022-10-16T03:59:36;2.50;;;1.53;;
8349;SDS011;60699;48.946;8.412;2022-10-16T04:02:04;1.63;;;1.53;;
8349;SDS011;60699;48.946;8.412;2022-10-16T04:04:31;1.60;;;1.50;;
8349;SDS011;60699;48.946;8.412;2022-10-16T04:06:58;1.90;;;1.53;;
8349;SDS011;60699;48.946;8.412;2022-10-16T04:09:25;1.53;;;1.43;;
8349;SDS011;60699;48.946;8.412;2022-10-16T04:11:53;4.20;;;2.10;;
8349;SDS011;60699;48.946;8.412;2022-10-16T04:14:20;1.73;;;1.63;;
8349;SDS011;60699;48.946;8.412;2022-10-16T04:16:47;1.37;;;1.33;;
8349;SDS011;60699;48.946;8.412;2022-10-16T04:19:15;1.60;;;1.50;;
8349;SDS011;60699;48.946;8.412;2022-10-16T04:21:42;2.37;;;2.00;;
8349;SDS011;60699;48.946;8.412;2022-10-16T04:24:09;4.73;;;1.70;;
8349;SDS011;60699;48.946;8.412;2022-10-16T04:26:37;1.90;;;1.80;;
8349;SDS011;60699;48.946;8.412;2022-10-16T04:29:04;1.33;;;1.23;;
8349;SDS011;60699;48.946;8.412;2022-10-16T04:31:32;2.27;;;1.43;;
8349;SDS011;60699;48.946;8.412;2022-10-16T04:33:59;2.80;;;1.87;;
8349;SDS011;60699;48.946;8.412;2022-10-16T04:36:27;1.67;;;1.57;;
8349;SDS011;60699;48.946;8.412;2022-10-16T04:38:54;1.87;;;1.60;;
8349;SDS011;60699;48.946;8.412;2022-10-16T04:41:21;2.30;;;2.10;;
8349;SDS011;60699;48.946;8.412;2022-10-16T04:43:48;2.03;;;1.93;;
8349;SDS011;60699;48.946;8.412;2022-10-16T04:46:15;1.73;;;1.63;;
8349;SDS011;60699;48.946;8.412;2022-10-16T04:48:42;1.50;;;1.40;;
8349;SDS011;60699;48.946;8.412;2022-10-16T04:51:09;2.97;;;2.47;;
8349;SDS011;60699;48.946;8.412;2022-10-16T04:53:38;3.10;;;1.70;;
8349;SDS011;60699;48.946;8.412;2022-10-16T04:56:05;2.30;;;2.10;;
8349;SDS011;60699;48.946;8.412;2022-10-16T04:58:32;2.67;;;2.47;;
8349;SDS011;60699;48.946;8.412;2022-10-16T05:00:59;4.90;;;2.53;;
8349;SDS011;60699;48.946;8.412;2022-10-16T05:03:26;2.07;;;1.87;;
8349;SDS011;60699;48.946;8.412;2022-10-16T05:05:53;4.27;;;2.53;;
8349;SDS011;60699;48.946;8.412;2022-10-16T05:08:21;3.10;;;2.73;;
8349;SDS011;60699;48.946;8.412;2022-10-16T05:10:49;6.87;;;2.70;;
8349;SDS011;60699;48.946;8.412;2022-10-16T05:13:17;2.40;;;2.03;;
8349;SDS011;60699;48.946;8.412;2022-10-16T05:15:46;3.40;;;1.83;;
8349;SDS011;60699;48.946;8.412;2022-10-16T05:18:13;1.70;;;1.60;;
8349;SDS011;60699;48.946;8.412;2022-10-16T05:20:40;2.23;;;1.90;;
8349;SDS011;60699;48.946;8.412;2022-10-16T05:23:07;2.17;;;1.97;;
8349;SDS011;60699;48.946;8.412;2022-10-16T05:25:35;3.63;;;1.93;;
8349;SDS011;60699;48.946;8.412;2022-10-16T05:28:03;2.17;;;1.90;;
8349;SDS011;60699;48.946;8.412;2022-10-16T05:30:30;2.10;;;1.90;;
8349;SDS011;60699;48.946;8.412;2022-10-16T05:32:57;1.60;;;1.50;;
8349;SDS011;60699;48.946;8.412;2022-10-16T05:35:24;4.97;;;1.80;;
8349;SDS011;60699;48.946;8.412;2022-10-16T05:37:52;1.93;;;1.83;;
8349;SDS011;60699;48.946;8.412;2022-10-16T05:40:19;2.10;;;1.40;;
8349;SDS011;60699;48.946;8.412;2022-10-16T05:42:46;1.60;;;1.50;;
8349;SDS011;60699;48.946;8.412;2022-10-16T05:45:14;1.63;;;1.30;;
8349;SDS011;60699;48.946;8.412;2022-10-16T05:47:41;2.03;;;1.83;;
8349;SDS011;60699;48.946;8.412;2022-10-16T05:50:09;2.70;;;1.50;;
8349;SDS011;60699;48.946;8.412;2022-10-16T05:52:36;3.00;;;2.03;;
8349;SDS011;60699;48.946;8.412;2022-10-16T05:55:03;1.70;;;1.60;;
8349;SDS011;60699;48.946;8.412;2022-10-16T05:57:30;5.43;;;1.87;;
8349;SDS011;60699;48.946;8.412;2022-10-16T05:59:57;12.03;;;2.63;;
8349;SDS011;60699;48.946;8.412;2022-10-16T06:02:26;5.43;;;2.33;;
8349;SDS011;60699;48.946;8.412;2022-10-16T06:04:53;1.97;;;1.87;;
8349;SDS011;60699;48.946;8.412;2022-10-16T06:07:20;2.25;;;2.05;;
8349;SDS011;60699;48.946;8.412;2022-10-16T06:09:47;2.23;;;1.90;;
8349;SDS011;60699;48.946;8.412;2022-10-16T06:12:15;2.33;;;2.22;;
8349;SDS011;60699;48.946;8.412;2022-10-16T06:14:42;2.87;;;2.00;;
8349;SDS011;60699;48.946;8.412;2022-10-16T06:17:09;2.97;;;2.37;;
8349;SDS011;60699;48.946;8.412;2022-10-16T06:19:38;3.00;;;1.73;;
8349;SDS011;60699;48.946;8.412;2022-10-16T06:22:05;2.40;;;2.23;;
8349;SDS011;60699;48.946;8.412;2022-10-16T06:24:32;1.83;;;1.73;;
8349;SDS011;60699;48.946;8.412;2022-10-16T06:26:59;1.93;;;1.83;;
8349;SDS011;60699;48.946;8.412;2022-10-16T06:29:26;2.07;;;1.87;;
8349;SDS011;60699;48.946;8.412;2022-10-16T06:31:53;4.03;;;2.10;;
8349;SDS011;60699;48.946;8.412;2022-10-16T06:34:20;2.10;;;1.90;;
8349;SDS011;60699;48.946;8.412;2022-10-16T06:36:49;1.70;;;1.60;;
8349;SDS011;60699;48.946;8.412;2022-10-16T06:39:16;1.63;;;1.53;;
8349;SDS011;60699;48.946;8.412;2022-10-16T06:41:43;3.30;;;2.03;;
8349;SDS011;60699;48.946;8.412;2022-10-16T06:44:10;2.03;;;1.93;;
8349;SDS011;60699;48.946;8.412;2022-10-16T06:46:37;3.00;;;1.87;;
8349;SDS011;60699;48.946;8.412;2022-10-16T06:49:04;1.87;;;1.77;;
8349;SDS011;60699;48.946;8.412;2022-10-16T06:51:31;2.30;;;2.10;;
8349;SDS011;60699;48.946;8.412;2022-10-16T06:54:01;2.10;;;2.00;;
8349;SDS011;60699;48.946;8.412;2022-10-16T06:56:29;1.90;;;1.80;;
8349;SDS011;60699;48.946;8.412;2022-10-16T06:58:56;1.80;;;1.70;;
8349;SDS011;60699;48.946;8.412;2022-10-16T07:01:24;2.50;;;2.30;;
8349;SDS011;60699;48.946;8.412;2022-10-16T07:03:51;2.30;;;2.10;;
8349;SDS011;60699;48.946;8.412;2022-10-16T07:06:19;3.10;;;1.90;;
8349;SDS011;60699;48.946;8.412;2022-10-16T07:08:46;10.88;;;2.33;;
8349;SDS011;60699;48.946;8.412;2022-10-16T07:11:15;1.60;;;1.50;;
8349;SDS011;60699;48.946;8.412;2022-10-16T07:13:43;3.17;;;2.10;;
8349;SDS011;60699;48.946;8.412;2022-10-16T07:16:12;2.00;;;1.87;;
8349;SDS011;60699;48.946;8.412;2022-10-16T07:18:40;2.17;;;2.08;;
8349;SDS011;60699;48.946;8.412;2022-10-16T07:21:08;4.03;;;2.40;;
8349;SDS011;60699;48.946;8.412;2022-10-16T07:23:35;4.20;;;2.00;;
8349;SDS011;60699;48.946;8.412;2022-10-16T07:26:03;3.83;;;2.10;;
8349;SDS011;60699;48.946;8.412;2022-10-16T07:28:32;2.47;;;2.27;;
8349;SDS011;60699;48.946;8.412;2022-10-16T07:31:00;3.47;;;2.00;;
8349;SDS011;60699;48.946;8.412;2022-10-16T07:33:28;1.80;;;1.70;;
8349;SDS011;60699;48.946;8.412;2022-10-16T07:35:55;1.50;;;1.40;;
8349;SDS011;60699;48.946;8.412;2022-10-16T07:38:23;1.87;;;1.77;;
8349;SDS011;60699;48.946;8.412;2022-10-16T07:40:55;6.93;;;1.57;;
8349;SDS011;60699;48.946;8.412;2022-10-16T07:43:22;1.87;;;1.77;;
8349;SDS011;60699;48.946;8.412;2022-10-16T07:45:51;1.50;;;1.40;;
8349;SDS011;60699;48.946;8.412;2022-10-16T07:48:18;2.30;;;1.70;;
8349;SDS011;60699;48.946;8.412;2022-10-16T07:50:46;2.73;;;1.70;;
8349;SDS011;60699;48.946;8.412;2022-10-16T07:53:13;2.60;;;2.03;;
8349;SDS011;60699;48.946;8.412;2022-10-16T07:55:40;2.20;;;1.83;;
8349;SDS011;60699;48.946;8.412;2022-10-16T07:58:07;1.70;;;1.60;;
8349;SDS011;60699;48.946;8.412;2022-10-16T08:00:35;2.37;;;2.27;;
8349;SDS011;60699;48.946;8.412;2022-10-16T08:03:04;2.30;;;2.20;;
8349;SDS011;60699;48.946;8.412;2022-10-16T08:05:31;4.07;;;1.97;;
8349;SDS011;60699;48.946;8.412;2022-10-16T08:08:00;4.03;;;3.73;;
8349;SDS011;60699;48.946;8.412;2022-10-16T08:10:27;2.07;;;1.80;;
8349;SDS011;60699;48.946;8.412;2022-10-16T08:12:55;2.40;;;2.20;;
8349;SDS011;60699;48.946;8.412;2022-10-16T08:15:22;1.73;;;1.63;;
8349;SDS011;60699;48.946;8.412;2022-10-16T08:17:56;2.07;;;1.97;;
8349;SDS011;60699;48.946;8.412;2022-10-16T08:20:24;3.47;;;2.60;;
8349;SDS011;60699;48.946;8.412;2022-10-16T08:22:51;2.30;;;2.10;;
8349;SDS011;60699;48.946;8.412;2022-10-16T08:25:19;3.73;;;2.13;;
8349;SDS011;60699;48.946;8.412;2022-10-16T08:27:46;2.10;;;1.90;;
8349;SDS011;60699;48.946;8.412;2022-10-16T08:30:13;2.30;;;2.20;;
8349;SDS011;60699;48.946;8.412;2022-10-16T08:32:40;3.00;;;2.13;;
8349;SDS011;60699;48.946;8.412;2022-10-16T08:35:08;2.47;;;2.27;;
8349;SDS011;60699;48.946;8.412;2022-10-16T08:37:37;2.23;;;2.03;;
8349;SDS011;60699;48.946;8.412;2022-10-16T08:40:04;1.67;;;1.57;;
8349;SDS011;60699;48.946;8.412;2022-10-16T08:42:36;2.00;;;1.80;;
8349;SDS011;60699;48.946;8.412;2022-10-16T08:47:54;2.07;;;1.87;;
8349;SDS011;60699;48.946;8.412;2022-10-16T08:50:25;2.90;;;2.70;;
8349;SDS011;60699;48.946;8.412;2022-10-16T08:52:54;2.47;;;2.27;;
8349;SDS011;60699;48.946;8.412;2022-10-16T08:58:13;2.73;;;1.80;;
8349;SDS011;60699;48.946;8.412;2022-10-16T09:00:41;3.50;;;2.03;;
8349;SDS011;60699;48.946;8.412;2022-10-16T09:03:11;2.47;;;2.00;;
8349;SDS011;60699;48.946;8.412;2022-10-16T09:05:57;3.63;;;1.67;;
8349;SDS011;60699;48.946;8.412;2022-10-16T09:08:31;2.23;;;1.53;;
8349;SDS011;60699;48.946;8.412;2022-10-16T09:11:03;1.67;;;1.57;;
8349;SDS011;60699;48.946;8.412;2022-10-16T09:13:34;3.73;;;2.67;;
8349;SDS011;60699;48.946;8.412;2022-10-16T09:16:10;1.90;;;1.80;;
8349;SDS011;60699;48.946;8.412;2022-10-16T09:18:40;1.80;;;1.70;;
8349;SDS011;60699;48.946;8.412;2022-10-16T09:21:12;4.97;;;2.03;;
8349;SDS011;60699;48.946;8.412;2022-10-16T09:23:42;2.73;;;2.03;;
8349;SDS011;60699;48.946;8.412;2022-10-16T09:26:11;2.20;;;2.03;;
8349;SDS011;60699;48.946;8.412;2022-10-16T09:28:39;1.90;;;1.80;;
8349;SDS011;60699;48.946;8.412;2022-10-16T09:31:07;2.23;;;2.13;;
8349;SDS011;60699;48.946;8.412;2022-10-16T09:33:37;2.67;;;2.47;;
8349;SDS011;60699;48.946;8.412;2022-10-16T09:36:06;3.57;;;2.20;;
8349;SDS011;60699;48.946;8.412;2022-10-16T09:38:34;2.50;;;2.30;;
8349;SDS011;60699;48.946;8.412;2022-10-16T09:41:03;1.90;;;1.80;;
8349;SDS011;60699;48.946;8.412;2022-10-16T09:43:39;2.90;;;2.10;;
8349;SDS011;60699;48.946;8.412;2022-10-16T09:46:08;2.13;;;1.93;;
8349;SDS011;60699;48.946;8.412;2022-10-16T09:48:36;2.23;;;2.03;;
8349;SDS011;60699;48.946;8.412;2022-10-16T09:51:04;2.03;;;1.53;;
8349;SDS011;60699;48.946;8.412;2022-10-16T09:53:37;3.37;;;2.27;;
8349;SDS011;60699;48.946;8.412;2022-10-16T09:56:06;1.77;;;1.67;;
8349;SDS011;60699;48.946;8.412;2022-10-16T09:58:34;2.00;;;1.90;;
8349;SDS011;60699;48.946;8.412;2022-10-16T10:01:02;2.20;;;2.10;;
8349;SDS011;60699;48.946;8.412;2022-10-16T10:03:36;4.33;;;3.07;;
8349;SDS011;60699;48.946;8.412;2022-10-16T10:06:13;2.33;;;2.13;;
8349;SDS011;60699;48.946;8.412;2022-10-16T10:08:51;3.20;;;2.50;;
8349;SDS011;60699;48.946;8.412;2022-10-16T10:14:05;2.37;;;1.90;;
8349;SDS011;60699;48.946;8.412;2022-10-16T10:16:32;2.70;;;2.07;;
8349;SDS011;60699;48.946;8.412;2022-10-16T10:18:59;2.10;;;2.00;;
8349;SDS011;60699;48.946;8.412;2022-10-16T10:21:26;5.77;;;2.00;;
8349;SDS011;60699;48.946;8.412;2022-10-16T10:23:57;2.63;;;2.43;;
8349;SDS011;60699;48.946;8.412;2022-10-16T10:26:26;3.13;;;2.40;;
8349;SDS011;60699;48.946;8.412;2022-10-16T10:28:55;8.50;;;2.30;;
8349;SDS011;60699;48.946;8.412;2022-10-16T10:31:27;2.80;;;2.60;;
8349;SDS011;60699;48.946;8.412;2022-10-16T10:33:57;3.70;;;2.73;;
8349;SDS011;60699;48.946;8.412;2022-10-16T10:36:28;2.77;;;2.57;;
8349;SDS011;60699;48.946;8.412;2022-10-16T10:38:57;3.97;;;2.50;;
8349;SDS011;60699;48.946;8.412;2022-10-16T10:44:15;2.90;;;2.03;;
8349;SDS011;60699;48.946;8.412;2022-10-16T10:46:47;2.10;;;2.00;;
8349;SDS011;60699;48.946;8.412;2022-10-16T10:49:30;2.50;;;2.33;;
8349;SDS011;60699;48.946;8.412;2022-10-16T10:52:06;4.90;;;2.23;;
8349;SDS011;60699;48.946;8.412;2022-10-16T10:54:36;2.87;;;2.60;;
8349;SDS011;60699;48.946;8.412;2022-10-16T10:57:08;6.30;;;2.70;;
8349;SDS011;60699;48.946;8.412;2022-10-16T11:02:23;2.17;;;2.00;;
8349;SDS011;60699;48.946;8.412;2022-10-16T11:07:48;2.10;;;1.90;;
8349;SDS011;60699;48.946;8.412;2022-10-16T11:10:17;2.30;;;2.10;;
8349;SDS011;60699;48.946;8.412;2022-10-16T11:12:46;2.20;;;2.10;;
8349;SDS011;60699;48.946;8.412;2022-10-16T11:15:15;1.97;;;1.87;;
8349;SDS011;60699;48.946;8.412;2022-10-16T11:17:47;2.17;;;2.07;;
8349;SDS011;60699;48.946;8.412;2022-10-16T11:20:16;7.03;;;2.50;;
8349;SDS011;60699;48.946;8.412;2022-10-16T11:22:45;3.60;;;2.50;;
8349;SDS011;60699;48.946;8.412;2022-10-16T11:25:16;3.30;;;2.00;;
8349;SDS011;60699;48.946;8.412;2022-10-16T11:27:47;5.70;;;4.73;;
8349;SDS011;60699;48.946;8.412;2022-10-16T11:30:16;4.30;;;2.27;;
8349;SDS011;60699;48.946;8.412;2022-10-16T11:32:50;2.33;;;2.10;;
8349;SDS011;60699;48.946;8.412;2022-10-16T11:35:19;2.13;;;1.93;;
8349;SDS011;60699;48.946;8.412;2022-10-16T11:37:49;1.70;;;1.60;;
8349;SDS011;60699;48.946;8.412;2022-10-16T11:40:19;8.33;;;2.10;;
8349;SDS011;60699;48.946;8.412;2022-10-16T11:42:49;3.17;;;2.23;;
8349;SDS011;60699;48.946;8.412;2022-10-16T11:45:23;2.00;;;1.80;;
8349;SDS011;60699;48.946;8.412;2022-10-16T11:47:54;2.23;;;1.87;;
8349;SDS011;60699;48.946;8.412;2022-10-16T11:50:25;3.10;;;1.90;;
8349;SDS011;60699;48.946;8.412;2022-10-16T11:52:54;2.90;;;2.70;;
8349;SDS011;60699;48.946;8.412;2022-10-16T11:55:23;2.30;;;2.20;;
8349;SDS011;60699;48.946;8.412;2022-10-16T11:57:51;2.33;;;2.10;;
8349;SDS011;60699;48.946;8.412;2022-10-16T12:00:21;3.37;;;2.70;;
8349;SDS011;60699;48.946;8.412;2022-10-16T12:02:54;1.93;;;1.70;;
8349;SDS011;60699;48.946;8.412;2022-10-16T12:05:24;2.40;;;2.20;;
8349;SDS011;60699;48.946;8.412;2022-10-16T12:07:55;2.60;;;2.03;;
8349;SDS011;60699;48.946;8.412;2022-10-16T12:10:25;3.00;;;1.70;;
8349;SDS011;60699;48.946;8.412;2022-10-16T12:12:53;2.20;;;2.03;;
8349;SDS011;60699;48.946;8.412;2022-10-16T12:15:23;2.37;;;2.17;;
8349;SDS011;60699;48.946;8.412;2022-10-16T12:17:53;2.50;;;2.30;;
8349;SDS011;60699;48.946;8.412;2022-10-16T12:20:25;2.30;;;2.10;;
8349;SDS011;60699;48.946;8.412;2022-10-16T12:22:55;2.10;;;2.00;;
8349;SDS011;60699;48.946;8.412;2022-10-16T12:25:24;2.40;;;2.20;;
8349;SDS011;60699;48.946;8.412;2022-10-16T12:27:56;2.20;;;2.00;;
8349;SDS011;60699;48.946;8.412;2022-10-16T12:30:24;2.53;;;2.23;;
8349;SDS011;60699;48.946;8.412;2022-10-16T12:32:56;1.63;;;1.53;;
8349;SDS011;60699;48.946;8.412;2022-10-16T12:35:25;3.30;;;2.37;;
8349;SDS011;60699;48.946;8.412;2022-10-16T12:37:53;2.00;;;1.90;;
8349;SDS011;60699;48.946;8.412;2022-10-16T12:40:25;2.30;;;2.10;;
8349;SDS011;60699;48.946;8.412;2022-10-16T12:42:53;2.20;;;1.60;;
8349;SDS011;60699;48.946;8.412;2022-10-16T12:45:27;2.43;;;2.03;;
8349;SDS011;60699;48.946;8.412;2022-10-16T12:47:57;2.23;;;2.03;;
8349;SDS011;60699;48.946;8.412;2022-10-16T12:50:26;3.10;;;2.30;;
8349;SDS011;60699;48.946;8.412;2022-10-16T12:52:53;2.43;;;2.23;;
8349;SDS011;60699;48.946;8.412;2022-10-16T12:55:21;3.13;;;2.20;;
8349;SDS011;60699;48.946;8.412;2022-10-16T12:57:56;2.60;;;2.40;;
8349;SDS011;60699;48.946;8.412;2022-10-16T13:00:28;2.03;;;1.93;;
8349;SDS011;60699;48.946;8.412;2022-10-16T13:03:16;2.00;;;1.90;;
8349;SDS011;60699;48.946;8.412;2022-10-16T13:05:51;2.10;;;2.00;;
8349;SDS011;60699;48.946;8.412;2022-10-16T13:08:29;2.03;;;1.93;;
8349;SDS011;60699;48.946;8.412;2022-10-16T13:11:00;2.10;;;2.00;;
8349;SDS011;60699;48.946;8.412;2022-10-16T13:16:14;7.90;;;2.23;;
8349;SDS011;60699;48.946;8.412;2022-10-16T13:18:48;2.50;;;2.40;;
8349;SDS011;60699;48.946;8.412;2022-10-16T13:21:22;5.50;;;2.47;;
8349;SDS011;60699;48.946;8.412;2022-10-16T13:23:54;2.13;;;1.80;;
8349;SDS011;60699;48.946;8.412;2022-10-16T13:26:26;2.27;;;2.07;;
8349;SDS011;60699;48.946;8.412;2022-10-16T13:28:58;2.80;;;2.60;;
8349;SDS011;60699;48.946;8.412;2022-10-16T13:31:26;3.07;;;2.73;;
8349;SDS011;60699;48.946;8.412;2022-10-16T13:33:55;2.60;;;2.13;;
8349;SDS011;60699;48.946;8.412;2022-10-16T13:36:24;2.50;;;2.30;;
8349;SDS011;60699;48.946;8.412;2022-10-16T13:38:59;2.33;;;2.03;;
8349;SDS011;60699;48.946;8.412;2022-10-16T13:41:27;2.53;;;2.33;;
8349;SDS011;60699;48.946;8.412;2022-10-16T13:43:54;3.33;;;2.60;;
8349;SDS011;60699;48.946;8.412;2022-10-16T13:46:23;5.30;;;2.43;;
8349;SDS011;60699;48.946;8.412;2022-10-16T13:48:58;2.47;;;2.27;;
8349;SDS011;60699;48.946;8.412;2022-10-16T13:51:25;2.10;;;2.00;;
8349;SDS011;60699;48.946;8.412;2022-10-16T13:53:54;5.20;;;2.30;;
8349;SDS011;60699;48.946;8.412;2022-10-16T13:56:22;4.40;;;2.23;;
8349;SDS011;60699;48.946;8.412;2022-10-16T13:58:58;4.97;;;3.20;;
8349;SDS011;60699;48.946;8.412;2022-10-16T14:01:26;3.00;;;2.67;;
8349;SDS011;60699;48.946;8.412;2022-10-16T14:04:00;2.70;;;2.40;;
8349;SDS011;60699;48.946;8.412;2022-10-16T14:06:30;4.10;;;2.70;;
8349;SDS011;60699;48.946;8.412;2022-10-16T14:08:59;2.80;;;2.60;;
8349;SDS011;60699;48.946;8.412;2022-10-16T14:11:27;4.90;;;3.20;;
8349;SDS011;60699;48.946;8.412;2022-10-16T14:13:54;2.70;;;2.50;;
8349;SDS011;60699;48.946;8.412;2022-10-16T14:16:22;2.57;;;2.27;;
8349;SDS011;60699;48.946;8.412;2022-10-16T14:18:52;3.33;;;3.00;;
8349;SDS011;60699;48.946;8.412;2022-10-16T14:21:23;4.17;;;3.77;;
8349;SDS011;60699;48.946;8.412;2022-10-16T14:23:51;7.00;;;4.37;;
8349;SDS011;60699;48.946;8.412;2022-10-16T14:26:20;8.10;;;4.13;;
8349;SDS011;60699;48.946;8.412;2022-10-16T14:28:48;4.00;;;3.67;;
8349;SDS011;60699;48.946;8.412;2022-10-16T14:31:25;3.10;;;2.90;;
8349;SDS011;60699;48.946;8.412;2022-10-16T14:33:53;3.43;;;2.93;;
8349;SDS011;60699;48.946;8.412;2022-10-16T14:36:20;5.30;;;2.37;;
8349;SDS011;60699;48.946;8.412;2022-10-16T14:38:54;2.73;;;2.60;;
8349;SDS011;60699;48.946;8.412;2022-10-16T14:41:23;2.77;;;2.57;;
8349;SDS011;60699;48.946;8.412;2022-10-16T14:43:51;2.30;;;2.20;;
8349;SDS011;60699;48.946;8.412;2022-10-16T14:46:20;2.07;;;1.87;;
8349;SDS011;60699;48.946;8.412;2022-10-16T14:48:51;2.40;;;2.20;;
8349;SDS011;60699;48.946;8.412;2022-10-16T14:51:21;5.20;;;3.07;;
8349;SDS011;60699;48.946;8.412;2022-10-16T14:53:50;2.73;;;2.53;;
8349;SDS011;60699;48.946;8.412;2022-10-16T14:56:18;2.80;;;2.50;;
8349;SDS011;60699;48.946;8.412;2022-10-16T14:58:46;2.90;;;2.40;;
8349;SDS011;60699;48.946;8.412;2022-10-16T15:01:13;2.23;;;2.00;;
8349;SDS011;60699;48.946;8.412;2022-10-16T15:03:40;2.50;;;2.30;;
8349;SDS011;60699;48.946;8.412;2022-10-16T15:06:09;2.87;;;2.47;;
8349;SDS011;60699;48.946;8.412;2022-10-16T15:08:38;2.77;;;2.40;;
8349;SDS011;60699;48.946;8.412;2022-10-16T15:11:09;3.07;;;2.60;;
8349;SDS011;60699;48.946;8.412;2022-10-16T15:13:37;6.40;;;4.50;;
8349;SDS011;60699;48.946;8.412;2022-10-16T15:16:07;3.53;;;3.23;;
8349;SDS011;60699;48.946;8.412;2022-10-16T15:18:35;6.27;;;5.10;;
8349;SDS011;60699;48.946;8.412;2022-10-16T15:21:02;3.13;;;2.93;;
8349;SDS011;60699;48.946;8.412;2022-10-16T15:23:29;3.10;;;2.90;;
8349;SDS011;60699;48.946;8.412;2022-10-16T15:25:56;5.40;;;4.40;;
8349;SDS011;60699;48.946;8.412;2022-10-16T15:28:25;5.10;;;4.60;;
8349;SDS011;60699;48.946;8.412;2022-10-16T15:30:53;4.70;;;4.23;;